Flight Track Log - Related Links

Times and Time Zones

All times are in EDT time to prevent confusion due to time zone crossing. See the FSR411 flight status page for this flight to view local times or setup timezone preferences in your user account.


Time Position Orientation Groundspeed Altitude Reporting Facility
EDT Latitude Longitude Course Direction KTS MPH feet Rate Location/Type
Wed 03:08:46 PM 34.6861 -82.3261 134° Southeast 271 312 5,800  Level Atlanta Center
Wed 03:09:46 PM 34.6656 -82.2178 103° East 308 354 6,000 50 Climbing Atlanta Center
Wed 03:10:46 PM 34.6664 -82.1244 89° East 302 348 5,900 500 Descending Atlanta Center
Wed 03:11:46 PM 34.6214 -82.0572 129° Southeast 284 327 7,000 1,800 Climbing Atlanta Center
Wed 03:12:00 PM 34.5504 -81.9581 134° Southeast  Level FlightAware Approximate
Wed 03:12:46 PM 34.5439 -82.0364 168° South 304 350 9,500  Level Atlanta Center
Wed 03:13:00 PM 34.5004 -81.8946 134° Southeast  Level FlightAware Approximate
Wed 03:13:46 PM 34.4517 -82.0058 165° South 319 367 10,500  Level Atlanta Center
Wed 03:14:46 PM 34.3831 -81.8994 128° Southeast 350 403 11,000 172 Climbing Atlanta Center
Wed 03:17:15 PM 34.2139 -81.6194 126° Southeast 401 461 11,100 -29 Climbing Jacksonville Center
Wed 03:18:15 PM 34.1461 -81.5125 127° Southeast 406 467 10,900 -650 Descending Jacksonville Center
Wed 03:19:15 PM 34.0908 -81.4231 127° Southeast 380 437 9,800 -1,300 Descending Jacksonville Center
Wed 03:20:15 PM 34.0375 -81.3414 128° Southeast 335 386 8,300 -900 Descending Jacksonville Center
Wed 03:21:15 PM 33.9867 -81.2669 129° Southeast 305 351 8,000 -150 Descending Jacksonville Center
Wed 03:22:15 PM 33.9194 -81.2383 161° South 275 316 8,000  Level Jacksonville Center
Wed 03:23:15 PM 33.8544 -81.2194 166° South 250 288 8,000 -150 Level Jacksonville Center
Wed 03:24:15 PM 33.7875 -81.1983 165° South 250 288 7,700 -700 Descending Jacksonville Center
Wed 03:25:15 PM 33.7678 -81.1286 109° East 203 234 6,600 -1,500 Descending Jacksonville Center
Wed 03:27:15 PM 33.8258 -80.9675 67° East 227 261 3,200 -1,700 Descending Jacksonville Center
Wed 03:29:00 PM 33.9508 -80.9915 23° Northeast  Level Estimated
Wed 03:36:00 PM 33.9667 -80.9833 23° Northeast  Level FlightAware Approximate
Wed 03:37:00 PM 33.9705 -80.9952 23° Northeast  Level Estimated

Login

Don't have an account? Register now (free) for customized features, flight alerts, and more!